createdAt,value
2023-02-03T00:01:19.157Z,74.00
2023-02-03T00:04:23.172Z,74.02
2023-02-03T00:07:27.700Z,73.84
2023-02-03T00:10:32.944Z,74.03
2023-02-03T00:13:36.959Z,74.04
2023-02-03T00:16:40.928Z,73.60
2023-02-03T00:19:45.016Z,73.74
2023-02-03T00:22:48.978Z,73.20
2023-02-03T00:25:53.730Z,73.22
2023-02-03T00:29:00.722Z,73.49
2023-02-03T00:32:05.439Z,73.62
2023-02-03T00:35:09.524Z,73.35
2023-02-03T00:38:13.991Z,73.47
2023-02-03T00:41:20.661Z,73.54
2023-02-03T00:44:24.880Z,73.44
2023-02-03T00:47:28.923Z,73.11
2023-02-03T00:50:34.155Z,73.21
2023-02-03T00:53:38.055Z,72.72
2023-02-03T00:56:42.149Z,72.47
2023-02-03T00:59:46.076Z,72.52
2023-02-03T01:02:50.035Z,72.25
2023-02-03T01:05:54.132Z,71.78
2023-02-03T01:08:58.155Z,71.99
2023-02-03T01:12:02.463Z,71.60
2023-02-03T01:15:07.355Z,71.53
2023-02-03T01:18:11.323Z,71.83
2023-02-03T01:21:18.201Z,71.68
2023-02-03T01:24:22.329Z,71.50
2023-02-03T01:27:26.256Z,71.49
2023-02-03T01:30:30.295Z,71.51
2023-02-03T01:33:34.416Z,71.67
2023-02-03T01:36:39.247Z,71.42
2023-02-03T01:39:44.339Z,71.42
2023-02-03T01:42:48.362Z,71.36
2023-02-03T01:45:52.536Z,71.31
2023-02-03T01:49:04.250Z,71.42
2023-02-03T01:52:08.707Z,71.34
2023-02-03T01:55:16.311Z,71.79
2023-02-03T01:58:32.313Z,71.89
2023-02-03T02:01:37.451Z,71.64
2023-02-03T02:05:13.809Z,71.62
2023-02-03T02:08:22.537Z,71.86
2023-02-03T02:11:28.302Z,71.54
2023-02-03T02:14:34.051Z,71.41
2023-02-03T02:17:49.990Z,71.48
2023-02-03T02:21:06.170Z,70.87
2023-02-03T02:24:47.630Z,70.37
2023-02-03T02:28:17.023Z,70.53
2023-02-03T02:31:54.798Z,70.56
2023-02-03T02:35:38.203Z,70.30
2023-02-03T02:39:10.349Z,70.40
2023-02-03T02:42:32.796Z,70.25
2023-02-03T02:45:40.714Z,70.29
2023-02-03T02:48:56.748Z,70.10
2023-02-03T02:52:05.431Z,70.01
2023-02-03T02:55:38.165Z,69.95
2023-02-03T02:58:47.346Z,70.11
2023-02-03T03:01:51.662Z,70.16
2023-02-03T03:04:55.716Z,70.18
2023-02-03T03:08:02.844Z,70.17
2023-02-03T03:11:07.519Z,70.21
2023-02-03T03:14:12.774Z,70.44
2023-02-03T03:17:25.106Z,70.58
2023-02-03T03:20:31.123Z,70.54
2023-02-03T03:23:42.470Z,70.52
2023-02-03T03:26:54.900Z,70.90
2023-02-03T03:30:05.271Z,70.98
2023-02-03T03:33:10.644Z,70.93
2023-02-03T03:36:30.662Z,71.04
2023-02-03T03:39:55.054Z,70.96
2023-02-03T03:43:16.963Z,71.12
2023-02-03T03:46:27.149Z,71.10
2023-02-03T03:49:34.256Z,70.89
2023-02-03T03:52:39.835Z,71.01
2023-02-03T03:55:48.844Z,70.79
2023-02-03T03:58:54.132Z,70.95
2023-02-03T04:02:04.791Z,70.94
2023-02-03T04:05:11.681Z,70.78
2023-02-03T04:08:15.644Z,70.56
2023-02-03T04:11:38.410Z,70.91
2023-02-03T04:14:42.412Z,70.78
2023-02-03T04:17:46.427Z,70.58
2023-02-03T04:20:50.513Z,70.54
2023-02-03T04:23:56.628Z,70.41
2023-02-03T04:27:00.626Z,70.58
2023-02-03T04:30:05.911Z,70.61
2023-02-03T04:33:09.816Z,70.77
2023-02-03T04:36:13.704Z,70.84
2023-02-03T04:39:17.611Z,70.54
2023-02-03T04:42:22.597Z,70.67
2023-02-03T04:45:26.586Z,71.11
2023-02-03T04:48:30.686Z,70.78
2023-02-03T04:51:34.798Z,71.10
2023-02-03T04:54:39.386Z,71.15
2023-02-03T04:57:43.344Z,71.20
2023-02-03T05:00:47.372Z,71.61
2023-02-03T05:03:51.381Z,71.60
2023-02-03T05:06:56.396Z,71.69
2023-02-03T05:10:00.299Z,71.83
2023-02-03T05:13:04.203Z,71.62
2023-02-03T05:16:08.171Z,71.71
2023-02-03T05:19:12.714Z,72.00
2023-02-03T05:22:16.824Z,71.96
2023-02-03T05:25:20.821Z,71.97
2023-02-03T05:28:24.977Z,72.03
2023-02-03T05:31:28.997Z,72.19
2023-02-03T05:34:33.063Z,72.30
2023-02-03T05:37:37.060Z,72.46
2023-02-03T05:40:59.630Z,72.47
2023-02-03T05:44:03.756Z,72.40
2023-02-03T05:47:07.712Z,72.67
2023-02-03T05:50:11.686Z,72.81
2023-02-03T05:53:15.613Z,72.89
2023-02-03T05:56:19.570Z,72.96
2023-02-03T05:59:23.530Z,73.07
2023-02-03T06:02:27.535Z,73.00
2023-02-03T06:05:33.355Z,73.24
2023-02-03T06:08:37.318Z,73.20
2023-02-03T06:11:42.856Z,73.33
2023-02-03T06:14:46.760Z,73.38
2023-02-03T06:17:51.051Z,73.25
2023-02-03T06:20:55.398Z,73.50
2023-02-03T06:23:59.421Z,73.47
2023-02-03T06:27:03.410Z,73.57
2023-02-03T06:30:08.724Z,73.88
2023-02-03T06:33:13.121Z,73.92
2023-02-03T06:36:17.063Z,74.02
2023-02-03T06:39:21.120Z,74.22
2023-02-03T06:42:25.168Z,74.13
2023-02-03T06:45:29.900Z,74.12
2023-02-03T06:48:33.917Z,74.31
2023-02-03T06:51:38.351Z,74.28
2023-02-03T06:54:46.886Z,74.36
2023-02-03T06:57:50.878Z,74.24
2023-02-03T07:00:57.795Z,74.38
2023-02-03T07:04:01.887Z,74.42
2023-02-03T07:07:06.176Z,74.58
2023-02-03T07:10:10.901Z,74.52
2023-02-03T07:13:14.961Z,74.78
2023-02-03T07:16:19.429Z,74.82
2023-02-03T07:19:23.499Z,74.89
2023-02-03T07:22:27.451Z,75.16
2023-02-03T07:25:31.606Z,74.93
2023-02-03T07:28:35.915Z,74.70
2023-02-03T07:31:39.940Z,74.67
2023-02-03T07:34:44.025Z,74.42
2023-02-03T07:37:48.085Z,74.27
2023-02-03T07:40:52.993Z,74.05
2023-02-03T07:43:56.932Z,73.69
2023-02-03T07:47:00.883Z,73.70
2023-02-03T07:50:05.338Z,73.54
2023-02-03T07:53:09.504Z,73.45
2023-02-03T07:56:13.641Z,73.04
2023-02-03T07:59:17.762Z,72.54
2023-02-03T08:02:22.189Z,72.53
2023-02-03T08:05:26.903Z,72.27
2023-02-03T08:08:31.767Z,72.13
2023-02-03T08:11:35.756Z,71.85
2023-02-03T08:14:39.769Z,71.60
2023-02-03T08:17:44.689Z,71.60
2023-02-03T08:20:49.127Z,71.39
2023-02-03T08:23:53.493Z,71.49
2023-02-03T08:26:57.478Z,71.40
2023-02-03T08:30:01.723Z,71.15
2023-02-03T08:33:05.945Z,71.12
2023-02-03T08:36:11.463Z,70.86
2023-02-03T08:39:15.481Z,70.76
2023-02-03T08:42:20.483Z,70.73
2023-02-03T08:45:24.482Z,70.25
2023-02-03T08:48:43.904Z,70.17
2023-02-03T08:51:48.857Z,69.70
2023-02-03T08:54:52.768Z,69.06
2023-02-03T08:57:57.107Z,68.83
2023-02-03T09:01:12.841Z,68.33
2023-02-03T09:04:19.601Z,68.02
2023-02-03T09:07:23.674Z,67.78
2023-02-03T09:10:28.047Z,67.47
2023-02-03T09:13:34.162Z,67.46
2023-02-03T09:16:38.657Z,67.15
2023-02-03T09:19:42.729Z,67.02
2023-02-03T09:22:46.827Z,66.52
2023-02-03T09:25:51.251Z,66.17
2023-02-03T09:28:55.253Z,66.03
2023-02-03T09:32:00.256Z,65.75
2023-02-03T09:35:04.754Z,65.94
2023-02-03T09:38:08.733Z,65.42
2023-02-03T09:41:24.618Z,64.86
2023-02-03T09:45:00.605Z,64.27
2023-02-03T09:48:23.977Z,64.11
2023-02-03T09:51:32.407Z,63.91
2023-02-03T09:54:51.983Z,64.01
2023-02-03T09:58:04.503Z,63.85
2023-02-03T10:01:14.092Z,63.65
2023-02-03T10:04:28.034Z,63.42
2023-02-03T10:07:52.403Z,63.21
2023-02-03T10:11:12.692Z,63.05
2023-02-03T10:14:28.975Z,61.86
2023-02-03T10:17:39.369Z,61.71
2023-02-03T10:20:47.676Z,62.02
2023-02-03T10:23:55.187Z,61.53
2023-02-03T10:26:59.490Z,61.58
2023-02-03T10:30:25.659Z,61.82
2023-02-03T10:33:32.192Z,61.91
2023-02-03T10:36:44.096Z,62.52
2023-02-03T10:39:51.192Z,62.00
2023-02-03T10:43:14.857Z,61.58
2023-02-03T10:46:26.489Z,61.79
2023-02-03T10:49:30.615Z,61.58
2023-02-03T10:52:36.113Z,61.44
2023-02-03T10:55:40.205Z,61.48
2023-02-03T10:58:50.071Z,61.10
2023-02-03T11:01:54.536Z,61.40
2023-02-03T11:05:16.655Z,62.01
2023-02-03T11:08:30.284Z,62.30
2023-02-03T11:11:35.345Z,61.96
2023-02-03T11:14:44.369Z,62.20
2023-02-03T11:17:48.489Z,61.72
2023-02-03T11:20:53.012Z,61.55
2023-02-03T11:24:20.488Z,61.93
2023-02-03T11:27:30.440Z,61.46
2023-02-03T11:30:34.564Z,61.49
2023-02-03T11:33:38.547Z,61.64
2023-02-03T11:36:42.691Z,61.69
2023-02-03T11:39:46.708Z,62.11
2023-02-03T11:42:50.733Z,61.94
2023-02-03T11:46:05.068Z,61.90
2023-02-03T11:49:34.592Z,61.46
2023-02-03T11:52:56.926Z,61.66
2023-02-03T11:56:19.180Z,61.38
2023-02-03T11:59:23.099Z,61.41
2023-02-03T12:02:55.943Z,61.52
2023-02-03T12:06:18.232Z,61.46
2023-02-03T12:09:46.536Z,61.41
2023-02-03T12:13:16.544Z,61.23
2023-02-03T12:16:49.640Z,61.00
2023-02-03T12:20:44.219Z,60.73
2023-02-03T12:24:08.996Z,60.25
2023-02-03T12:27:33.949Z,60.62
2023-02-03T12:30:52.057Z,60.20
2023-02-03T12:34:17.853Z,60.25
2023-02-03T12:37:24.911Z,60.76
2023-02-03T12:40:40.410Z,60.67
2023-02-03T12:43:50.741Z,60.67
2023-02-03T12:47:13.925Z,60.36
2023-02-03T12:50:24.008Z,60.44
2023-02-03T12:53:36.628Z,60.52
2023-02-03T12:56:45.586Z,60.67
2023-02-03T13:00:20.675Z,60.59
2023-02-03T13:03:50.707Z,61.07
2023-02-03T13:07:12.005Z,61.49
2023-02-03T13:10:39.807Z,61.86
2023-02-03T13:13:50.370Z,62.28
2023-02-03T13:17:06.887Z,62.47
2023-02-03T13:20:19.701Z,63.75
2023-02-03T13:23:24.925Z,64.49
2023-02-03T13:27:00.940Z,65.16
2023-02-03T13:30:23.869Z,66.19
2023-02-03T13:33:42.937Z,66.85
2023-02-03T13:36:49.567Z,67.66
2023-02-03T13:40:14.020Z,68.43
2023-02-03T13:43:37.759Z,69.35
2023-02-03T13:46:43.027Z,70.22
2023-02-03T13:49:55.748Z,70.56
2023-02-03T13:53:07.804Z,70.83
2023-02-03T13:56:20.984Z,71.38
2023-02-03T13:59:36.984Z,71.81
2023-02-03T14:02:44.669Z,72.18
2023-02-03T14:05:50.851Z,72.80
2023-02-03T14:08:59.495Z,73.35
2023-02-03T14:12:34.023Z,73.55
2023-02-03T14:15:39.766Z,74.45
2023-02-03T14:18:46.224Z,74.61
2023-02-03T14:21:54.692Z,74.97
2023-02-03T14:25:06.076Z,75.31
2023-02-03T14:28:42.307Z,75.82
2023-02-03T14:32:01.670Z,75.97
2023-02-03T14:35:17.794Z,76.43
2023-02-03T14:38:21.766Z,76.38
2023-02-03T14:41:57.817Z,76.48
2023-02-03T14:45:17.864Z,76.83
2023-02-03T14:48:41.031Z,77.01
2023-02-03T14:52:30.522Z,77.14
2023-02-03T14:56:12.325Z,77.19
2023-02-03T14:59:16.623Z,77.43
2023-02-03T15:02:26.557Z,77.82
2023-02-03T15:05:30.843Z,78.17
2023-02-03T15:08:36.206Z,78.09
2023-02-03T15:11:48.066Z,78.40
2023-02-03T15:14:53.629Z,78.36
2023-02-03T15:17:59.876Z,78.37
2023-02-03T15:21:04.488Z,78.75
2023-02-03T15:24:22.350Z,78.90
2023-02-03T15:27:29.545Z,79.13
2023-02-03T15:30:33.795Z,79.17
2023-02-03T15:33:39.732Z,79.18
2023-02-03T15:36:49.783Z,79.29
2023-02-03T15:39:58.822Z,79.33
2023-02-03T15:43:23.409Z,79.53
2023-02-03T15:46:30.651Z,79.64
2023-02-03T15:49:40.350Z,79.52
2023-02-03T15:52:46.295Z,79.77
2023-02-03T15:55:56.509Z,79.76
2023-02-03T15:59:00.801Z,79.91
2023-02-03T16:02:21.407Z,79.83
2023-02-03T16:05:32.465Z,80.06
2023-02-03T16:08:36.609Z,79.80
2023-02-03T16:11:41.752Z,79.84
2023-02-03T16:14:45.895Z,79.99
2023-02-03T16:17:57.422Z,79.96
2023-02-03T16:21:01.784Z,79.89
2023-02-03T16:24:06.832Z,80.01
2023-02-03T16:27:26.207Z,80.24
2023-02-03T16:30:49.450Z,80.15
2023-02-03T16:34:11.894Z,80.09
2023-02-03T16:37:45.705Z,80.00
2023-02-03T16:41:08.276Z,80.17
2023-02-03T16:44:31.099Z,80.17
2023-02-03T16:47:57.270Z,80.21
2023-02-03T16:51:06.942Z,80.07
2023-02-03T16:54:13.815Z,80.32
2023-02-03T16:57:17.738Z,80.30
2023-02-03T17:00:22.759Z,80.29
2023-02-03T17:03:28.672Z,80.41
2023-02-03T17:06:34.161Z,80.27
2023-02-03T17:09:38.167Z,80.39
2023-02-03T17:12:42.298Z,80.18
2023-02-03T17:15:49.927Z,80.21
2023-02-03T17:18:54.068Z,80.16
2023-02-03T17:21:57.977Z,80.10
2023-02-03T17:25:02.164Z,80.21
2023-02-03T17:28:08.570Z,80.23
2023-02-03T17:31:16.434Z,80.24
2023-02-03T17:34:20.489Z,80.10
2023-02-03T17:37:24.562Z,80.10
2023-02-03T17:54:04.195Z,80.21
2023-02-03T17:57:08.417Z,79.90
2023-02-03T18:00:13.398Z,80.08
2023-02-03T18:03:17.363Z,80.13
2023-02-03T18:06:23.111Z,80.12
2023-02-03T18:09:27.017Z,79.96
2023-02-03T18:12:31.283Z,79.83
2023-02-03T18:15:37.806Z,79.81
2023-02-03T18:18:43.354Z,79.69
2023-02-03T18:21:47.281Z,79.95
2023-02-03T18:24:52.262Z,80.10
2023-02-03T18:27:56.964Z,79.79
2023-02-03T18:31:03.571Z,79.90
2023-02-03T18:34:07.632Z,79.93
2023-02-03T18:37:12.272Z,79.80
2023-02-03T18:40:16.391Z,79.91
2023-02-03T18:43:21.626Z,79.90
2023-02-03T18:46:30.254Z,79.93
2023-02-03T18:49:36.133Z,80.12
2023-02-03T18:52:40.153Z,79.96
2023-02-03T18:55:44.884Z,79.82
2023-02-03T18:58:49.290Z,79.76
2023-02-03T19:01:53.305Z,79.57
2023-02-03T19:04:57.617Z,79.65
2023-02-03T19:08:01.749Z,79.52
2023-02-03T19:11:05.771Z,79.21
2023-02-03T19:14:10.099Z,79.02
2023-02-03T19:17:14.428Z,79.19
2023-02-03T19:20:19.351Z,79.23
2023-02-03T19:23:24.038Z,79.21
2023-02-03T19:26:28.332Z,78.87
2023-02-03T19:29:32.321Z,78.85
2023-02-03T19:32:36.264Z,79.20
2023-02-03T19:35:41.904Z,79.13
2023-02-03T19:38:46.315Z,78.91
2023-02-03T19:41:50.522Z,78.95
2023-02-03T19:44:56.222Z,79.12
2023-02-03T19:48:00.221Z,78.96
2023-02-03T19:51:04.472Z,79.04
2023-02-03T19:54:12.354Z,79.07
2023-02-03T19:57:16.369Z,79.02
2023-02-03T20:00:21.595Z,78.95
2023-02-03T20:03:25.525Z,78.87
2023-02-03T20:06:29.851Z,78.80
2023-02-03T20:09:34.069Z,78.76
2023-02-03T20:12:38.085Z,78.58
2023-02-03T20:15:42.276Z,78.44
2023-02-03T20:18:46.290Z,78.72
2023-02-03T20:21:50.321Z,78.33
2023-02-03T20:24:54.550Z,78.55
2023-02-03T20:28:01.923Z,78.48
2023-02-03T20:31:06.594Z,78.37
2023-02-03T20:34:10.706Z,78.26
2023-02-03T20:37:14.673Z,78.29
2023-02-03T20:40:22.715Z,78.14
2023-02-03T20:43:27.851Z,78.31
2023-02-03T20:46:31.936Z,78.29
2023-02-03T20:49:36.001Z,78.27
2023-02-03T20:52:40.113Z,78.37
2023-02-03T20:55:44.239Z,78.11
2023-02-03T20:58:48.707Z,78.03
2023-02-03T21:01:52.747Z,78.09
2023-02-03T21:05:17.763Z,78.11
2023-02-03T21:08:21.927Z,78.14
2023-02-03T21:11:27.567Z,78.02
2023-02-03T21:14:42.957Z,78.46
2023-02-03T21:17:46.966Z,78.31
2023-02-03T21:20:51.467Z,78.21
2023-02-03T21:23:55.886Z,78.13
2023-02-03T21:27:01.167Z,77.78
2023-02-03T21:30:28.633Z,78.10
2023-02-03T21:33:41.793Z,77.99
2023-02-03T21:36:46.682Z,78.06
2023-02-03T21:39:50.861Z,78.06
2023-02-03T21:42:55.427Z,77.89
2023-02-03T21:45:59.873Z,78.04
2023-02-03T21:49:04.911Z,77.90
2023-02-03T21:52:15.228Z,77.84
2023-02-03T21:55:19.216Z,77.84
2023-02-03T21:58:36.186Z,77.82
2023-02-03T22:01:41.185Z,77.68
2023-02-03T22:04:45.161Z,77.72
2023-02-03T22:07:49.128Z,77.59
2023-02-03T22:10:53.028Z,77.43
2023-02-03T22:13:57.414Z,77.34
2023-02-03T22:17:01.427Z,77.34
2023-02-03T22:20:06.408Z,77.46
2023-02-03T22:23:10.485Z,77.39
2023-02-03T22:26:15.448Z,77.36
2023-02-03T22:29:19.347Z,77.49
2023-02-03T22:32:23.355Z,77.45
2023-02-03T22:35:27.545Z,77.62
2023-02-03T22:38:31.790Z,77.60
2023-02-03T22:41:35.802Z,77.82
2023-02-03T22:44:39.713Z,77.76
2023-02-03T22:47:43.624Z,77.84
2023-02-03T22:50:47.704Z,77.65
2023-02-03T22:53:51.967Z,77.39
2023-02-03T22:56:55.984Z,77.49
2023-02-03T22:59:59.916Z,77.59
2023-02-03T23:03:05.103Z,77.60
2023-02-03T23:06:09.262Z,77.76
2023-02-03T23:09:13.271Z,77.69
2023-02-03T23:12:17.261Z,77.58
2023-02-03T23:15:21.189Z,77.71
2023-02-03T23:18:25.528Z,77.66
2023-02-03T23:21:29.653Z,77.58
2023-02-03T23:24:33.756Z,77.52
2023-02-03T23:27:37.851Z,77.69
2023-02-03T23:30:42.083Z,77.57
2023-02-03T23:34:06.296Z,77.56
2023-02-03T23:37:10.183Z,77.66
2023-02-03T23:40:14.326Z,77.62
2023-02-03T23:43:18.344Z,77.53
2023-02-03T23:46:22.406Z,77.48
2023-02-03T23:49:26.454Z,77.50
2023-02-03T23:52:35.685Z,77.73
2023-02-03T23:55:39.933Z,77.87
2023-02-03T23:58:43.946Z,77.91
